Time;durP1;ratioP1;P1;durP2;ratioP2;P2;SDS_P1;SDS_P2;PMS_P1;PMS_P2;Temp;Humidity;BMP_temperature;BMP_pressure;BME280_temperature;BME280_humidity;BME280_pressure;Samples;Min_cycle;Max_cycle;Signal;HPM_P1;HPM_P2
2023/01/11 05:22:43;;;;;;;0.43;0.43;;;;;;;10.04;96.04;100083.72;5109222;27;20326;-69
2023/01/11 05:25:09;;;;;;;1.17;0.85;;;;;;;10.11;95.28;100078.53;5109101;28;20489;-68
2023/01/11 05:27:34;;;;;;;0.30;0.30;;;;;;;10.13;95.07;100081.00;5108873;28;20040;-69
2023/01/11 05:29:59;;;;;;;1.85;0.50;;;;;;;10.12;95.05;100069.53;5109091;28;20087;-68
2023/01/11 05:32:25;;;;;;;3.83;0.60;;;;;;;10.15;94.91;100060.38;5109598;28;20084;-68
2023/01/11 05:34:50;;;;;;;1.10;0.63;;;;;;;10.18;94.58;100070.69;5109099;28;20081;-69
2023/01/11 05:37:16;;;;;;;1.35;1.17;;;;;;;10.21;94.42;100065.00;5108619;28;20048;-68
2023/01/11 05:39:41;;;;;;;0.63;0.63;;;;;;;10.17;94.89;100064.53;5109060;28;20047;-66
2023/01/11 05:42:06;;;;;;;1.60;1.00;;;;;;;10.19;94.68;100062.50;5109332;28;20079;-69
2023/01/11 05:47:16;;;;;;;0.35;0.35;;;;;;;10.19;94.76;100062.50;5108535;28;20445;-67
2023/01/11 05:49:42;;;;;;;3.53;0.52;;;;;;;10.21;94.61;100065.00;5108923;28;20071;-68
2023/01/11 05:52:07;;;;;;;1.48;0.82;;;;;;;10.18;94.48;100066.19;5108729;28;20082;-68
2023/01/11 05:54:32;;;;;;;0.55;0.45;;;;;;;10.19;94.40;100057.19;5108804;28;20035;-67
2023/01/11 05:56:58;;;;;;;0.90;0.47;;;;;;;10.17;94.65;100053.03;5108361;28;20047;-71
2023/01/11 05:59:25;;;;;;;0.40;0.40;;;;;;;10.14;94.76;100061.38;5108517;28;20040;-68
2023/01/11 06:01:51;;;;;;;2.25;1.05;;;;;;;10.15;95.18;100065.69;5107410;28;20130;-68
2023/01/11 06:04:16;;;;;;;0.93;0.60;;;;;;;10.16;94.85;100056.69;5108621;28;20117;-68
2023/01/11 06:06:41;;;;;;;1.05;0.60;;;;;;;10.15;94.89;100060.38;5108467;28;20040;-68
2023/01/11 06:09:07;;;;;;;0.93;0.60;;;;;;;10.13;94.62;100051.72;5108190;28;20051;-68
2023/01/11 06:11:32;;;;;;;1.88;0.57;;;;;;;10.13;94.38;100057.88;5108395;28;20446;-67
2023/01/11 06:13:57;;;;;;;1.13;0.38;;;;;;;10.14;94.42;100056.88;5108668;28;20035;-68
2023/01/11 06:16:23;;;;;;;0.40;0.28;;;;;;;10.13;94.28;100063.22;5108539;28;20127;-68
2023/01/11 06:18:50;;;;;;;0.77;0.30;;;;;;;10.17;94.01;100058.34;5108013;28;20047;-68
2023/01/11 06:21:17;;;;;;;0.80;0.43;;;;;;;10.15;94.10;100055.03;5106919;28;20039;-68
2023/01/11 06:23:45;;;;;;;0.77;0.38;;;;;;;10.23;93.59;100049.69;5108313;28;20040;-67
2023/01/11 06:26:16;;;;;;;0.65;0.45;;;;;;;10.18;93.67;100046.72;5107955;28;20032;-68
2023/01/11 06:28:41;;;;;;;1.55;0.60;;;;;;;10.21;93.21;100033.03;5107813;28;20114;-66
2023/01/11 06:31:07;;;;;;;1.40;0.57;;;;;;;10.24;93.34;100036.22;5107895;28;20119;-67
2023/01/11 06:33:34;;;;;;;0.57;0.38;;;;;;;10.28;92.78;100044.69;5097488;28;20416;-67
2023/01/11 06:36:03;;;;;;;0.43;0.30;;;;;;;10.26;92.91;100026.22;5094173;28;20122;-68
2023/01/11 06:38:29;;;;;;;1.42;0.50;;;;;;;10.28;92.55;100018.06;5094015;28;20101;-68
2023/01/11 06:40:56;;;;;;;0.88;0.30;;;;;;;10.27;92.55;100014.56;5094204;28;20040;-65
2023/01/11 06:43:24;;;;;;;1.42;0.50;;;;;;;10.27;92.62;100008.41;5094245;28;20032;-68
2023/01/11 06:45:50;;;;;;;1.50;0.70;;;;;;;10.22;92.85;100008.06;5094173;28;20078;-67
2023/01/11 06:48:19;;;;;;;0.63;0.60;;;;;;;10.23;93.04;99999.94;5093881;28;20044;-68
2023/01/11 06:50:50;;;;;;;1.58;0.57;;;;;;;10.23;92.98;100004.44;5094050;28;20044;-68
2023/01/11 06:53:16;;;;;;;0.57;0.45;;;;;;;10.18;92.85;99996.97;5094068;28;20535;-67
2023/01/11 06:55:41;;;;;;;0.32;0.30;;;;;;;10.20;93.03;100000.28;5094041;28;20032;-67
2023/01/11 06:58:07;;;;;;;0.40;0.30;;;;;;;10.18;92.81;99996.97;5093822;28;20044;-67
2023/01/11 07:00:32;;;;;;;0.45;0.45;;;;;;;10.17;93.10;99995.31;5094087;28;20051;-68
2023/01/11 07:03:05;;;;;;;0.38;0.35;;;;;;;10.13;93.61;99993.19;5094040;28;20082;-66
2023/01/11 07:05:34;;;;;;;1.25;0.63;;;;;;;10.16;93.36;99984.81;5093738;28;20059;-65
2023/01/11 07:08:00;;;;;;;0.40;0.40;;;;;;;10.17;93.52;99990.00;5093426;28;20047;-66
2023/01/11 07:10:26;;;;;;;0.30;0.30;;;;;;;10.15;93.32;99983.19;5093732;28;20039;-66
2023/01/11 07:12:52;;;;;;;0.43;0.43;;;;;;;10.19;93.32;99981.81;5093750;28;20043;-65
2023/01/11 07:15:18;;;;;;;2.63;1.13;;;;;;;10.20;93.48;99978.16;5093745;28;20036;-66
2023/01/11 07:17:46;;;;;;;1.08;0.73;;;;;;;10.21;93.18;99985.13;5093314;28;20051;-64
2023/01/11 07:20:12;;;;;;;0.52;0.40;;;;;;;10.24;93.14;99979.50;5093893;28;20044;-66
2023/01/11 07:22:38;;;;;;;0.40;0.40;;;;;;;10.27;92.73;99977.28;5093440;28;20066;-66
2023/01/11 07:25:04;;;;;;;0.82;0.55;;;;;;;10.31;92.59;99975.13;5093387;28;20040;-65
2023/01/11 07:27:29;;;;;;;1.05;0.38;;;;;;;10.34;92.46;99990.72;5093096;28;20101;-66
2023/01/11 07:29:58;;;;;;;0.52;0.40;;;;;;;10.36;92.29;99983.38;5093343;28;20432;-66
2023/01/11 07:32:25;;;;;;;1.02;0.35;;;;;;;10.35;92.43;99981.72;5093321;28;20036;-65
2023/01/11 07:34:50;;;;;;;0.68;0.43;;;;;;;10.46;91.93;99980.50;5092071;28;20040;-66
2023/01/11 07:37:16;;;;;;;0.45;0.40;;;;;;;10.51;91.64;99978.94;5091489;28;20111;-66
2023/01/11 07:39:41;;;;;;;1.27;1.00;;;;;;;10.54;91.35;99981.25;5093288;28;20031;-64
2023/01/11 07:44:53;;;;;;;1.25;0.43;;;;;;;10.60;90.87;99974.38;5092112;28;20040;-66
2023/01/11 07:47:18;;;;;;;1.25;0.35;;;;;;;10.64;91.18;99974.84;5092623;28;20096;-66
2023/01/11 07:49:45;;;;;;;0.20;0.20;;;;;;;10.66;90.73;99970.16;5092957;28;20043;-66
2023/01/11 07:52:10;;;;;;;1.17;0.50;;;;;;;10.70;90.39;99974.13;5092819;28;20043;-67
2023/01/11 07:54:35;;;;;;;0.45;0.35;;;;;;;10.78;90.24;99976.72;5092546;28;20040;-65
2023/01/11 07:57:01;;;;;;;0.35;0.35;;;;;;;10.79;90.01;99968.53;5093001;28;20032;-66
2023/01/11 07:59:26;;;;;;;0.65;0.40;;;;;;;10.80;89.57;99959.53;5092646;28;20488;-67
2023/01/11 08:01:52;;;;;;;0.17;0.17;;;;;;;10.94;88.93;99968.56;5092819;28;20032;-64
2023/01/11 08:04:17;;;;;;;1.35;0.68;;;;;;;10.92;89.19;99973.25;5092707;28;20484;-66
2023/01/11 08:06:42;;;;;;;1.50;0.63;;;;;;;11.00;88.67;99978.47;5093010;28;20115;-67
2023/01/11 08:09:08;;;;;;;0.25;0.25;;;;;;;11.02;88.17;99979.16;5092257;28;20047;-67
2023/01/11 08:17:02;;;;;;;0.77;0.52;;;;;;;11.15;87.79;99983.84;5092318;28;20036;-65
2023/01/11 08:19:28;;;;;;;1.42;0.70;;;;;;;11.17;87.70;99992.47;5092328;28;20043;-66
2023/01/11 08:21:53;;;;;;;0.57;0.50;;;;;;;11.21;87.29;99987.59;5092320;28;20064;-66
2023/01/11 08:24:19;;;;;;;0.50;0.32;;;;;;;11.26;87.50;100006.53;5092468;28;20085;-65
2023/01/11 08:26:44;;;;;;;0.52;0.30;;;;;;;11.27;87.83;99998.34;5092201;28;20093;-65
2023/01/11 08:29:10;;;;;;;3.25;1.33;;;;;;;11.27;88.12;100009.00;5091885;28;20035;-66
2023/01/11 08:31:35;;;;;;;0.30;0.30;;;;;;;11.29;87.89;100014.19;5092150;28;20032;-66
2023/01/11 08:34:01;;;;;;;0.22;0.22;;;;;;;11.34;87.60;100009.09;5092075;28;20493;-65
2023/01/11 08:36:26;;;;;;;0.30;0.30;;;;;;;11.35;87.68;100010.78;5091999;28;20487;-66
2023/01/11 08:38:56;;;;;;;0.40;0.40;;;;;;;11.30;88.51;100013.19;5091803;28;20111;-66
2023/01/11 08:41:24;;;;;;;0.20;0.20;;;;;;;11.35;88.09;100014.28;5091773;28;20131;-66
2023/01/11 08:43:50;;;;;;;0.20;0.20;;;;;;;11.38;88.65;100013.06;5092059;28;20047;-65
2023/01/11 08:46:17;;;;;;;0.50;0.32;;;;;;;11.36;88.68;100012.44;5091949;28;20039;-66
2023/01/11 08:48:42;;;;;;;1.52;0.95;;;;;;;11.25;89.63;100005.72;5091766;28;20044;-65
2023/01/11 08:51:08;;;;;;;0.30;0.30;;;;;;;11.34;91.55;100019.78;5091917;28;20043;-66
2023/01/11 08:53:33;;;;;;;2.42;1.35;;;;;;;11.31;93.33;100014.81;5092059;28;20055;-68
2023/01/11 08:55:59;;;;;;;0.65;0.28;;;;;;;11.23;94.31;100029.06;5091586;28;20040;-65
2023/01/11 08:58:24;;;;;;;0.30;0.30;;;;;;;11.17;95.71;100019.13;5091522;28;20048;-66
2023/01/11 09:00:50;;;;;;;0.22;0.20;;;;;;;11.06;97.06;100020.41;5091797;28;20071;-67
2023/01/11 09:03:17;;;;;;;0.88;0.55;;;;;;;11.08;97.86;100022.88;5091829;28;20036;-67
2023/01/11 09:05:43;;;;;;;0.77;0.40;;;;;;;11.05;99.20;100024.09;5091739;28;20135;-66
2023/01/11 09:08:10;;;;;;;0.68;0.35;;;;;;;10.96;100.00;100019.84;5091469;28;20435;-66
2023/01/11 09:10:36;;;;;;;0.30;0.30;;;;;;;10.94;100.00;100019.19;5091835;28;20040;-66
2023/01/11 09:13:01;;;;;;;0.40;0.40;;;;;;;10.87;100.00;100029.72;5091714;28;20123;-66
2023/01/11 09:15:27;;;;;;;0.65;0.30;;;;;;;10.82;100.00;100012.63;5091617;28;20042;-64
2023/01/11 09:17:53;;;;;;;0.40;0.40;;;;;;;10.76;100.00;100029.38;5091513;28;20032;-66
2023/01/11 09:20:20;;;;;;;0.38;0.28;;;;;;;10.75;100.00;100030.34;5091443;28;20036;-64
2023/01/11 09:22:53;;;;;;;0.50;0.50;;;;;;;10.62;100.00;100025.63;5091574;28;20081;-66
2023/01/11 09:25:19;;;;;;;1.15;0.40;;;;;;;10.64;100.00;100039.59;5091327;28;20028;-66
2023/01/11 09:27:46;;;;;;;0.30;0.30;;;;;;;10.58;100.00;100041.16;5092015;28;20047;-65
2023/01/11 09:30:13;;;;;;;0.20;0.20;;;;;;;10.47;100.00;100036.22;5091745;28;20459;-66
2023/01/11 09:32:38;;;;;;;1.02;0.50;;;;;;;10.42;100.00;100041.25;5091300;28;20477;-65
2023/01/11 09:35:05;;;;;;;0.60;0.35;;;;;;;10.39;100.00;100043.47;5091483;28;20059;-65
2023/01/11 09:37:31;;;;;;;0.38;0.25;;;;;;;10.33;100.00;100047.66;5091382;28;20043;-66
2023/01/11 09:40:00;;;;;;;0.17;0.17;;;;;;;10.24;100.00;100056.69;5091367;28;20584;-66
2023/01/11 09:42:33;;;;;;;1.15;0.40;;;;;;;10.22;100.00;100054.16;5091401;28;20500;-66
2023/01/11 09:45:10;;;;;;;0.30;0.30;;;;;;;10.17;100.00;100043.22;5091508;28;20496;-66
2023/01/11 09:48:10;;;;;;;0.83;0.60;;;;;;;10.15;100.00;100045.22;5093456;28;20051;-65
2023/01/11 09:50:42;;;;;;;0.73;0.40;;;;;;;10.20;100.00;100042.03;5092222;28;20396;-65
2023/01/11 09:53:16;;;;;;;0.80;0.43;;;;;;;10.15;100.00;100039.06;5091229;28;20078;-66
2023/01/11 09:55:45;;;;;;;0.68;0.45;;;;;;;10.18;100.00;100033.41;5091297;28;20499;-64
2023/01/11 09:58:38;;;;;;;1.35;0.55;;;;;;;10.21;100.00;100043.69;5090951;28;20468;-67
2023/01/11 10:01:20;;;;;;;1.58;0.50;;;;;;;10.22;100.00;100046.16;5091304;28;20032;-65
2023/01/11 10:04:28;;;;;;;7.32;1.85;;;;;;;10.25;100.00;100050.38;5091162;28;20043;-64
2023/01/11 10:07:13;;;;;;;0.65;0.47;;;;;;;10.27;100.00;100048.34;5090964;28;20035;-68
2023/01/11 10:09:57;;;;;;;8.48;3.15;;;;;;;10.30;100.00;100062.16;5095067;28;20032;-66
2023/01/11 10:12:46;;;;;;;2.97;1.23;;;;;;;10.33;100.00;100053.78;5094894;28;20032;-66
2023/01/11 10:15:18;;;;;;;0.55;0.30;;;;;;;10.33;100.00;100055.63;5094881;28;20052;-67
2023/01/11 10:17:46;;;;;;;2.47;0.50;;;;;;;10.31;100.00;100055.00;5094768;28;20448;-67
2023/01/11 10:20:22;;;;;;;0.47;0.45;;;;;;;10.34;100.00;100049.31;5094715;28;20051;-67
2023/01/11 10:22:51;;;;;;;0.43;0.35;;;;;;;10.33;100.00;100063.63;5094732;28;20060;-67
2023/01/11 10:25:29;;;;;;;1.20;0.50;;;;;;;10.30;100.00;100042.66;5094508;28;20484;-67
2023/01/11 10:28:06;;;;;;;0.32;0.25;;;;;;;10.29;100.00;100056.97;5094280;28;20046;-67
2023/01/11 10:41:51;;;;;;;4.70;1.70;;;;;;;10.21;100.00;100057.00;5094576;28;20032;-68
2023/01/11 10:44:35;;;;;;;2.53;1.17;;;;;;;10.22;100.00;100064.81;5094436;28;20457;-68
2023/01/11 10:47:02;;;;;;;3.35;1.02;;;;;;;10.17;100.00;100061.88;5094172;28;20036;-68
2023/01/11 10:49:56;;;;;;;0.67;0.50;;;;;;;10.19;100.00;100067.00;5094131;28;20035;-68
2023/01/11 10:52:34;;;;;;;3.47;1.00;;;;;;;10.16;100.00;100068.16;5091194;28;20782;-68
2023/01/11 10:55:28;;;;;;;1.60;1.23;;;;;;;10.16;100.00;100060.19;5092941;28;20381;-68
2023/01/11 10:58:25;;;;;;;3.65;1.65;;;;;;;10.14;100.00;100064.03;5094048;28;20369;-68
2023/01/11 11:00:57;;;;;;;;;;;;;;;10.13;100.00;100060.53;5094533;28;20032;-68
2023/01/11 11:03:54;;;;;;;1.13;0.80;;;;;;;10.12;100.00;100061.56;5093955;28;19912;-68
2023/01/11 11:06:32;;;;;;;2.63;1.10;;;;;;;10.15;100.00;100058.53;5094012;28;20135;-67
2023/01/11 11:09:13;;;;;;;2.30;1.00;;;;;;;10.05;100.00;100042.78;5093584;28;20036;-65
2023/01/11 11:12:04;;;;;;;0.60;0.60;;;;;;;10.14;100.00;100054.22;5092482;28;20040;-65
2023/01/11 11:14:45;;;;;;;1.63;1.05;;;;;;;10.12;100.00;100050.09;5093887;28;20031;-66
2023/01/11 11:17:24;;;;;;;3.88;1.10;;;;;;;10.07;100.00;100054.09;5093415;28;20081;-66
2023/01/11 11:19:51;;;;;;;8.13;2.10;;;;;;;10.11;100.00;100054.56;5093578;28;20085;-66
2023/01/11 11:22:17;;;;;;;2.38;0.90;;;;;;;10.07;100.00;100043.44;5093178;28;20043;-66
2023/01/11 11:24:48;;;;;;;1.38;0.90;;;;;;;10.10;100.00;100046.75;5093474;28;20076;-65
2023/01/11 11:27:40;;;;;;;2.92;0.90;;;;;;;10.13;100.00;100046.41;5092795;28;20044;-66
2023/01/11 11:30:09;;;;;;;6.40;2.13;;;;;;;10.15;100.00;100044.41;5093460;28;20039;-65
2023/01/11 11:32:38;;;;;;;3.92;1.90;;;;;;;10.18;100.00;100052.03;5092371;28;20036;-63
2023/01/11 11:35:06;;;;;;;0.95;0.65;;;;;;;10.16;100.00;100062.00;5093576;28;20424;-64
2023/01/11 11:37:34;;;;;;;4.80;1.77;;;;;;;10.15;100.00;100055.88;5092794;28;20046;-63
2023/01/11 11:39:59;;;;;;;;;;;;;;;10.16;100.00;100049.53;5093889;28;20047;-64
2023/01/11 11:42:25;;;;;;;1.02;0.88;;;;;;;10.14;100.00;100054.22;5091981;28;20408;-67
2023/01/11 11:45:17;;;;;;;1.30;0.85;;;;;;;10.16;100.00;100057.53;5093120;28;20489;-67
2023/01/11 11:47:58;;;;;;;2.15;1.05;;;;;;;10.18;100.00;100060.03;5091652;28;20056;-68
2023/01/11 11:50:25;;;;;;;1.05;0.75;;;;;;;10.19;100.00;100059.03;5093127;28;20066;-67
2023/01/11 11:53:02;;;;;;;2.13;0.85;;;;;;;10.15;100.00;100047.06;5093074;28;20063;-67
2023/01/11 11:55:30;;;;;;;1.98;1.17;;;;;;;10.17;100.00;100058.34;5093089;28;20481;-67
2023/01/11 11:58:02;;;;;;;1.92;0.93;;;;;;;10.19;100.00;100064.34;5091626;28;20093;-67
2023/01/11 12:00:29;;;;;;;0.70;0.60;;;;;;;10.14;100.00;100050.72;5092926;28;20040;-68
2023/01/11 12:03:00;;;;;;;;;;;;;;;10.13;100.00;100062.38;5093296;28;20047;-68
2023/01/11 12:05:25;;;;;;;7.65;1.30;;;;;;;10.13;100.00;100063.22;5092657;28;19926;-68
2023/01/11 12:07:53;;;;;;;3.05;1.20;;;;;;;10.09;100.00;100050.41;5092361;28;20032;-67
2023/01/11 12:10:21;;;;;;;4.03;0.95;;;;;;;10.06;100.00;100048.94;5091674;28;20645;-67
2023/01/11 12:12:56;;;;;;;;;;;;;;;10.07;100.00;100048.75;5093473;28;20040;-67
2023/01/11 12:15:28;;;;;;;4.18;2.17;;;;;;;10.05;100.00;100056.09;5092251;28;20006;-67
2023/01/11 12:17:55;;;;;;;5.68;0.75;;;;;;;10.05;100.00;100050.78;5092247;28;20032;-67
2023/01/11 12:20:26;;;;;;;1.73;0.98;;;;;;;10.06;100.00;100052.44;5092368;28;20497;-67
2023/01/11 12:23:24;;;;;;;2.78;1.58;;;;;;;10.10;100.00;100041.41;5092329;28;20032;-67
2023/01/11 12:26:11;;;;;;;0.77;0.60;;;;;;;10.06;100.00;100054.25;5092301;28;20032;-67
2023/01/11 12:28:49;;;;;;;1.38;0.75;;;;;;;10.05;100.00;100032.16;5090162;28;20111;-68
2023/01/11 12:31:37;;;;;;;2.05;0.75;;;;;;;10.10;100.00;100036.09;5080261;28;20436;-67
2023/01/11 12:34:16;;;;;;;1.65;0.80;;;;;;;10.15;100.00;100039.91;5071810;28;20032;-67
2023/01/11 12:36:58;;;;;;;2.33;1.13;;;;;;;10.19;100.00;100041.22;5071728;28;20036;-67
2023/01/11 12:39:37;;;;;;;2.72;1.10;;;;;;;10.15;100.00;100039.91;5071665;28;20390;-68
2023/01/11 12:42:27;;;;;;;0.75;0.65;;;;;;;10.18;100.00;100052.03;5072197;28;20449;-67
2023/01/11 12:45:31;;;;;;;4.32;0.85;;;;;;;10.16;100.00;100067.34;5071795;28;20120;-61
2023/01/11 12:48:41;;;;;;;3.08;0.93;;;;;;;10.07;100.00;100072.72;5071414;28;20366;-61
2023/01/11 12:51:06;;;;;;;1.33;0.80;;;;;;;10.11;100.00;100085.69;5070660;28;20049;-61
2023/01/11 12:53:40;;;;;;;1.52;0.88;;;;;;;10.22;100.00;100093.25;5071888;28;20032;-68
2023/01/11 12:56:39;;;;;;;1.40;1.00;;;;;;;10.17;100.00;100112.44;5071827;28;20426;-67
2023/01/11 12:59:24;;;;;;;2.63;0.88;;;;;;;10.09;100.00;100114.28;5071316;28;20074;-68
2023/01/11 13:02:17;;;;;;;1.77;0.98;;;;;;;10.03;100.00;100095.34;5071675;28;20032;-67
2023/01/11 13:04:46;;;;;;;6.88;1.10;;;;;;;10.00;100.00;100098.38;5084428;28;20040;-68
2023/01/11 13:07:21;;;;;;;2.40;1.00;;;;;;;10.01;100.00;100086.72;5091387;28;20097;-67
2023/01/11 13:10:15;;;;;;;0.80;0.80;;;;;;;10.00;100.00;100097.53;5091713;28;20437;-68
2023/01/11 13:12:56;;;;;;;2.10;0.80;;;;;;;10.01;100.00;100104.50;5088366;28;20380;-68
2023/01/11 13:15:50;;;;;;;0.88;0.88;;;;;;;9.95;100.00;100114.00;5091333;28;20122;-68
2023/01/11 13:19:02;;;;;;;1.13;0.75;;;;;;;9.91;100.00;100109.19;5091232;28;20050;-68
2023/01/11 13:21:33;;;;;;;1.70;0.63;;;;;;;9.87;100.00;100113.22;5091370;28;20043;-68
2023/01/11 13:24:09;;;;;;;2.15;1.05;;;;;;;9.90;100.00;100116.34;5091352;28;20059;-68
2023/01/11 13:26:38;;;;;;;1.52;0.77;;;;;;;9.92;100.00;100121.53;5091424;28;20427;-68
2023/01/11 13:29:15;;;;;;;4.10;0.65;;;;;;;9.91;100.00;100118.03;5091001;28;20036;-68
2023/01/11 13:31:45;;;;;;;1.00;0.60;;;;;;;10.00;100.00;100118.81;5091427;28;20055;-68
2023/01/11 13:34:17;;;;;;;2.13;0.80;;;;;;;9.87;100.00;100122.03;5091087;28;20497;-68
2023/01/11 13:36:51;;;;;;;1.95;0.95;;;;;;;9.90;100.00;100119.00;5091336;28;20079;-68
2023/01/11 13:39:45;;;;;;;1.20;1.00;;;;;;;9.94;100.00;100116.84;5091228;28;20093;-68
2023/01/11 13:42:23;;;;;;;1.27;1.05;;;;;;;9.95;100.00;100134.47;5090249;28;20032;-68
2023/01/11 13:45:01;;;;;;;4.10;1.10;;;;;;;9.97;100.00;100137.78;5095534;28;20050;-68
2023/01/11 13:47:35;;;;;;;2.70;1.02;;;;;;;9.98;100.00;100139.47;5095032;28;20036;-67
2023/01/11 13:50:24;;;;;;;1.20;0.88;;;;;;;10.01;100.00;100144.44;5095375;28;20069;-68
2023/01/11 13:53:01;;;;;;;1.20;0.70;;;;;;;10.03;100.00;100143.25;5095295;28;20039;-67
2023/01/11 13:55:38;;;;;;;1.65;0.90;;;;;;;10.00;100.00;100142.78;5095155;28;20051;-68
2023/01/11 13:58:22;;;;;;;0.73;0.73;;;;;;;9.99;100.00;100147.28;5094878;28;20425;-68
2023/01/11 14:00:59;;;;;;;2.13;1.00;;;;;;;10.06;100.00;100153.56;5095217;28;20081;-68
2023/01/11 14:03:45;;;;;;;1.17;0.90;;;;;;;10.08;100.00;100148.06;5095112;28;20538;-68
2023/01/11 14:06:19;;;;;;;1.77;1.15;;;;;;;10.12;100.00;100152.03;5095151;28;20065;-68
2023/01/11 14:08:56;;;;;;;1.80;0.82;;;;;;;10.15;100.00;100156.19;5094728;28;20036;-67
2023/01/11 14:11:58;;;;;;;1.75;1.10;;;;;;;10.17;100.00;100163.00;5095059;28;20071;-67
2023/01/11 14:14:40;;;;;;;1.10;0.80;;;;;;;10.15;100.00;100172.16;5091719;28;20067;-68
2023/01/11 14:17:48;;;;;;;2.55;1.00;;;;;;;10.14;100.00;100175.81;5094567;28;20466;-68
2023/01/11 14:20:29;;;;;;;1.33;0.80;;;;;;;10.15;100.00;100172.16;5094817;28;20024;-68
2023/01/11 14:23:02;;;;;;;0.82;0.77;;;;;;;10.15;100.00;100185.47;5094665;28;20119;-68
2023/01/11 14:25:47;;;;;;;1.42;0.90;;;;;;;10.13;100.00;100184.81;5094545;28;20028;-68
2023/01/11 14:28:32;;;;;;;1.65;1.10;;;;;;;10.09;100.00;100202.94;5094396;28;20040;-68
2023/01/11 14:31:16;;;;;;;1.13;0.98;;;;;;;10.09;100.00;100204.78;5094347;28;20562;-68
2023/01/11 14:33:50;;;;;;;1.58;0.80;;;;;;;10.11;100.00;100200.97;5094590;28;20672;-68
2023/01/11 14:36:36;;;;;;;1.02;0.65;;;;;;;10.10;100.00;100212.59;5094506;28;20050;-66
2023/01/11 14:39:26;;;;;;;1.52;0.98;;;;;;;10.09;100.00;100216.25;5094119;28;20054;-66
2023/01/11 14:42:16;;;;;;;1.73;0.95;;;;;;;10.06;100.00;100227.25;5094491;28;20081;-65
2023/01/11 14:44:53;;;;;;;4.93;1.13;;;;;;;10.03;100.00;100230.25;5094399;28;20119;-65
2023/01/11 14:47:25;;;;;;;1.50;0.70;;;;;;;10.04;100.00;100230.09;5093872;28;20040;-66
2023/01/11 14:50:18;;;;;;;1.58;0.90;;;;;;;9.99;100.00;100221.78;5094153;28;20047;-65
2023/01/11 14:52:44;;;;;;;1.00;0.70;;;;;;;9.99;100.00;100231.59;5094013;28;20035;-66
2023/01/11 14:55:22;;;;;;;3.28;1.00;;;;;;;10.01;100.00;100233.06;5093704;28;20097;-66
2023/01/11 14:57:51;;;;;;;3.30;1.10;;;;;;;10.02;100.00;100241.88;5093766;28;20129;-66
2023/01/11 15:00:19;;;;;;;0.68;0.68;;;;;;;9.97;100.00;100253.03;5094076;28;20089;-65
2023/01/11 15:02:46;;;;;;;0.77;0.73;;;;;;;10.01;100.00;100248.22;5093891;28;20031;-64
2023/01/11 15:05:34;;;;;;;0.88;0.75;;;;;;;10.00;100.00;100255.38;5093882;28;20028;-67
2023/01/11 15:08:12;;;;;;;3.22;0.70;;;;;;;9.96;100.00;100264.69;5092235;28;20038;-65
2023/01/11 15:10:58;;;;;;;3.65;1.08;;;;;;;9.95;100.00;100267.50;5093903;28;20545;-68
2023/01/11 15:13:33;;;;;;;1.02;0.65;;;;;;;9.95;100.00;100267.50;5093803;28;20047;-68
2023/01/11 15:18:52;;;;;;;2.20;1.15;;;;;;;9.95;100.00;100272.84;5093577;28;20374;-69
2023/01/11 15:21:22;;;;;;;11.57;4.60;;;;;;;9.91;100.00;100272.34;5093698;28;20432;-68
2023/01/11 15:23:56;;;;;;;2.95;1.35;;;;;;;9.91;100.00;100276.81;5093660;28;20031;-69
2023/01/11 15:26:24;;;;;;;3.25;1.40;;;;;;;9.89;100.00;100266.34;5093475;28;20040;-67
2023/01/11 15:28:56;;;;;;;4.65;2.13;;;;;;;9.83;100.00;100272.34;5093035;28;20032;-68
2023/01/11 15:31:43;;;;;;;1.30;0.95;;;;;;;9.79;100.00;100276.34;5093410;28;20051;-67
2023/01/11 15:34:23;;;;;;;6.03;1.90;;;;;;;9.75;100.00;100278.50;5093355;28;20036;-66
2023/01/11 15:36:58;;;;;;;2.38;0.98;;;;;;;9.69;100.00;100286.31;5093212;28;20104;-68
2023/01/11 15:39:34;;;;;;;3.70;1.45;;;;;;;9.61;100.00;100289.81;5093265;28;20529;-67
2023/01/11 15:42:14;;;;;;;2.17;0.95;;;;;;;9.58;100.00;100297.28;5093231;28;20051;-68
2023/01/11 15:44:56;;;;;;;1.25;0.88;;;;;;;9.51;100.00;100300.59;5093480;28;20396;-67
2023/01/11 15:47:45;;;;;;;2.97;0.88;;;;;;;9.44;100.00;100307.56;5092649;28;20032;-66
2023/01/11 15:50:32;;;;;;;3.75;1.33;;;;;;;9.46;100.00;100310.09;5093103;28;20074;-67
2023/01/11 15:53:21;;;;;;;2.60;1.23;;;;;;;9.44;100.00;100320.88;5092847;28;20078;-67
2023/01/11 15:56:33;;;;;;;4.40;1.58;;;;;;;9.40;100.00;100326.69;5092892;28;20032;-66
2023/01/11 15:59:38;;;;;;;1.58;0.82;;;;;;;9.36;100.00;100336.81;5092503;28;20111;-67
2023/01/11 16:02:12;;;;;;;2.28;0.90;;;;;;;9.30;100.00;100331.31;5092504;28;20166;-67
2023/01/11 16:04:52;;;;;;;6.28;1.30;;;;;;;9.31;100.00;100344.44;5092749;28;20035;-67
2023/01/11 16:07:51;;;;;;;5.90;1.85;;;;;;;9.30;100.00;100350.75;5092172;28;20135;-67
2023/01/11 16:10:49;;;;;;;2.17;0.88;;;;;;;9.26;100.00;100362.72;5092611;28;20054;-68
2023/01/11 16:13:36;;;;;;;;;;;;;;;9.27;100.00;100371.53;5093040;28;20542;-68
2023/01/11 16:16:38;;;;;;;1.63;1.02;;;;;;;9.29;100.00;100383.66;5092469;28;19947;-66
2023/01/11 16:19:18;;;;;;;7.15;1.20;;;;;;;9.27;100.00;100382.16;5079840;28;20047;-66
2023/01/11 16:21:47;;;;;;;2.70;1.30;;;;;;;9.27;100.00;100392.78;5092410;28;20023;-67
2023/01/11 16:24:20;;;;;;;2.88;1.20;;;;;;;9.28;100.00;100392.63;5092418;28;20044;-66
2023/01/11 16:26:54;;;;;;;3.78;0.90;;;;;;;9.24;100.00;100396.59;5092408;28;20399;-67
2023/01/11 16:29:24;;;;;;;0.77;0.70;;;;;;;9.26;100.00;100394.63;5092219;28;20493;-66
2023/01/11 16:31:54;;;;;;;5.82;1.13;;;;;;;9.27;100.00;100406.91;5092206;28;20081;-66
2023/01/11 16:34:21;;;;;;;3.03;1.30;;;;;;;9.24;100.00;100407.22;5092323;28;20036;-68
2023/01/11 16:36:48;;;;;;;8.60;2.17;;;;;;;9.22;100.00;100418.03;5092091;28;20040;-67
2023/01/11 16:39:18;;;;;;;4.80;1.13;;;;;;;9.08;100.00;100420.47;5091922;28;20045;-66
2023/01/11 16:41:53;;;;;;;10.48;1.92;;;;;;;9.08;100.00;100429.25;5092214;28;20028;-68
2023/01/11 16:44:44;;;;;;;4.25;1.30;;;;;;;9.04;100.00;100419.94;5092127;28;20028;-67
2023/01/11 16:47:12;;;;;;;3.63;0.93;;;;;;;8.84;100.00;100431.78;5091651;28;20068;-68
2023/01/11 16:49:39;;;;;;;2.05;0.82;;;;;;;8.62;100.00;100422.53;5091994;28;20085;-67
2023/01/11 16:52:26;;;;;;;2.37;1.13;;;;;;;8.66;100.00;100437.16;5091940;28;20040;-66
2023/01/11 16:54:54;;;;;;;2.75;1.15;;;;;;;8.59;100.00;100434.28;5091925;28;20089;-67
2023/01/11 16:57:27;;;;;;;2.72;0.70;;;;;;;8.54;100.00;100438.38;5091462;28;20079;-68
2023/01/11 17:00:02;;;;;;;2.75;1.05;;;;;;;8.47;100.00;100445.31;5091844;28;20047;-68
2023/01/11 17:02:34;;;;;;;1.52;0.90;;;;;;;8.46;100.00;100443.66;5091770;28;20031;-69
2023/01/11 17:05:00;;;;;;;1.90;1.05;;;;;;;8.38;100.00;100441.78;5091912;28;20034;-67
2023/01/11 17:07:28;;;;;;;2.28;1.20;;;;;;;8.32;100.00;100447.66;5091475;28;20468;-66
2023/01/11 17:10:23;;;;;;;0.80;0.80;;;;;;;8.35;100.00;100450.03;5091865;28;20028;-67
2023/01/11 17:13:50;;;;;;;1.02;0.90;;;;;;;8.28;100.00;100460.41;5092018;28;20424;-67
2023/01/11 17:16:08;;;;;;;4.63;0.88;;;;;;;8.24;100.00;100460.88;5091440;28;20036;-66
2023/01/11 17:18:37;;;;;;;4.13;1.10;;;;;;;8.30;100.00;100461.09;5091082;28;20107;-67
2023/01/11 17:21:03;;;;;;;3.30;1.30;;;;;;;8.24;100.00;100472.31;5091347;28;20105;-67
2023/01/11 17:23:29;;;;;;;6.88;1.35;;;;;;;8.17;100.00;100484.53;5091404;28;20071;-66
2023/01/11 17:25:56;;;;;;;4.57;1.27;;;;;;;8.06;100.00;100490.88;5091394;28;20039;-66
2023/01/11 17:28:22;;;;;;;2.42;1.40;;;;;;;8.10;100.00;100496.72;5091122;28;20074;-66
2023/01/11 17:30:51;;;;;;;6.03;2.17;;;;;;;8.06;100.00;100500.66;5091928;28;20036;-66
2023/01/11 17:33:26;;;;;;;7.80;1.65;;;;;;;8.06;100.00;100505.97;5091520;28;20040;-67
2023/01/11 17:35:53;;;;;;;4.18;1.15;;;;;;;8.03;100.00;100511.59;5091214;28;20044;-66
2023/01/11 17:38:23;;;;;;;1.00;0.70;;;;;;;8.03;100.00;100515.06;5091204;28;20100;-65
2023/01/11 17:40:49;;;;;;;4.88;1.35;;;;;;;8.00;100.00;100517.19;5091513;28;20053;-65
2023/01/11 17:46:15;;;;;;;2.50;1.00;;;;;;;7.89;100.00;100528.84;5091270;28;20040;-67